Time;durP1;ratioP1;P1;durP2;ratioP2;P2;SDS_P1;SDS_P2;PMS_P1;PMS_P2;Temp;Humidity;BMP_temperature;BMP_pressure;BME280_temperature;BME280_humidity;BME280_pressure;Samples;Min_cycle;Max_cycle;Signal;HPM_P1;HPM_P2
2022/06/21 00:03:10;;;;;;;0.75;0.75;;;17.70;49.50;;;15.33;54.36;100918.44;12244025;19;20054;-86
2022/06/21 00:07:26;;;;;;;1.75;0.70;;;17.30;49.50;;;15.20;54.50;100891.31;12241984;19;20070;-86
2022/06/21 00:11:33;;;;;;;0.60;0.50;;;17.60;49.70;;;15.27;54.37;100908.34;12245122;19;20010;-86
2022/06/21 00:15:35;;;;;;;0.70;0.70;;;17.60;49.90;;;15.17;54.47;100910.78;12238669;19;20364;-86
2022/06/21 00:19:37;;;;;;;1.70;0.65;;;17.50;49.80;;;15.10;54.46;100904.31;12241938;19;20356;-86
2022/06/21 00:23:39;;;;;;;0.68;0.68;;;17.20;49.80;;;15.00;54.35;100906.75;12241174;19;20022;-85
2022/06/21 00:27:41;;;;;;;0.85;0.85;;;17.10;49.80;;;14.65;54.60;100853.19;12242497;19;20015;-85
2022/06/21 00:31:49;;;;;;;4.13;0.70;;;17.10;50.00;;;14.93;54.88;100900.25;12240761;19;20014;-85
2022/06/21 00:35:56;;;;;;;1.00;0.90;;;17.40;50.40;;;14.85;54.99;100881.50;12236050;19;20015;-85
2022/06/21 00:39:58;;;;;;;1.42;0.70;;;17.00;50.20;;;14.83;54.82;100883.44;12242333;19;20035;-85
2022/06/21 00:44:04;;;;;;;0.60;0.60;;;17.40;50.40;;;14.99;55.01;100918.22;12241791;19;20022;-85
2022/06/21 00:48:31;;;;;;;2.28;1.00;;;17.00;50.30;;;14.98;55.18;100913.06;12239314;19;20480;-85
2022/06/21 00:52:47;;;;;;;2.00;1.27;;;17.00;50.50;;;14.93;55.18;100913.41;12241989;19;20357;-85
2022/06/21 00:57:02;;;;;;;1.23;0.80;;;17.00;50.60;;;14.73;55.19;100885.03;12238481;19;20026;-84
2022/06/21 01:01:32;;;;;;;1.47;0.90;;;16.90;50.60;;;14.74;55.31;100895.44;12239803;19;20420;-85
2022/06/21 01:05:40;;;;;;;0.85;0.80;;;16.90;50.80;;;14.72;55.25;100904.38;12237128;19;20014;-85
2022/06/21 01:09:50;;;;;;;1.40;0.80;;;16.80;50.60;;;14.71;55.21;100897.44;12239452;19;20338;-85
2022/06/21 01:13:55;;;;;;;2.22;0.80;;;16.90;50.70;;;14.73;55.34;100895.53;12237139;19;20413;-85
2022/06/21 01:18:03;;;;;;;;;;;16.90;50.80;;;14.75;54.89;100907.63;12239775;19;20041;-86
2022/06/21 01:22:45;;;;;;;0.65;0.65;;;16.80;50.20;;;14.77;55.26;100932.03;12237925;19;20284;-85
2022/06/21 01:27:03;;;;;;;0.88;0.82;;;16.80;50.70;;;14.69;55.56;100920.34;12234619;19;20015;-84
2022/06/21 01:31:06;;;;;;;1.38;1.02;;;16.80;50.80;;;14.67;55.39;100917.00;12239596;19;20086;-84
2022/06/21 01:35:24;;;;;;;1.13;0.85;;;16.80;50.80;;;14.50;55.64;100892.69;12236805;19;20568;-86
2022/06/21 01:39:36;;;;;;;5.18;1.73;;;16.70;51.00;;;14.52;55.53;100898.69;12235715;19;20039;-84
2022/06/21 01:43:43;;;;;;;3.33;1.10;;;16.70;50.90;;;14.63;55.45;100912.91;12238320;19;20389;-85
2022/06/21 01:48:00;;;;;;;1.00;0.90;;;16.70;50.90;;;14.50;55.68;100886.56;12237525;19;20127;-84
2022/06/21 01:52:11;;;;;;;0.82;0.82;;;16.80;51.20;;;14.58;55.75;100908.81;12236350;19;20018;-84
2022/06/21 01:56:21;;;;;;;1.67;0.85;;;16.70;51.20;;;14.54;55.77;100899.44;12236969;19;20021;-85
2022/06/21 02:00:23;;;;;;;0.82;0.82;;;16.70;51.10;;;14.53;55.77;100908.28;12226818;19;20476;-85
2022/06/21 02:04:29;;;;;;;1.33;1.15;;;16.70;51.00;;;14.56;55.69;100921.22;12234564;19;20531;-84
2022/06/21 02:08:50;;;;;;;1.33;1.00;;;16.70;51.60;;;14.52;56.09;100914.47;12237995;19;20034;-85
2022/06/21 02:13:11;;;;;;;0.80;0.80;;;16.70;51.40;;;14.63;55.82;100926.03;12235917;19;20086;-84
2022/06/21 02:17:23;;;;;;;1.80;1.05;;;16.70;51.30;;;14.59;55.80;100934.13;12236054;19;20025;-84
2022/06/21 02:21:40;;;;;;;1.55;1.10;;;16.60;51.40;;;14.49;56.04;100906.78;12247251;19;20070;-85
2022/06/21 02:25:44;;;;;;;1.92;1.00;;;16.60;51.50;;;14.37;55.83;100897.94;12246265;19;20138;-84
2022/06/21 02:29:52;;;;;;;1.60;1.15;;;16.70;51.50;;;14.33;55.91;100898.25;12246875;19;20082;-85
2022/06/21 02:34:01;;;;;;;3.35;1.00;;;16.60;51.50;;;14.51;56.10;100925.06;12248933;19;20012;-85
2022/06/21 02:38:10;;;;;;;1.10;1.00;;;16.60;51.70;;;14.37;56.07;100907.63;12243554;19;20448;-84
2022/06/21 02:42:22;;;;;;;1.95;1.00;;;16.60;51.70;;;14.39;56.31;100910.97;12249505;19;20013;-84
2022/06/21 02:46:33;;;;;;;1.73;0.90;;;16.50;51.80;;;14.33;56.30;100899.09;12245119;19;20015;-84
2022/06/21 02:50:48;;;;;;;2.30;1.00;;;16.50;51.80;;;14.43;56.25;100922.13;12247764;19;20048;-84
2022/06/21 02:55:14;;;;;;;1.73;1.00;;;16.50;52.00;;;14.53;56.37;100931.94;12246692;19;20026;-84
2022/06/21 02:59:16;;;;;;;2.35;1.17;;;16.50;51.90;;;14.39;56.25;100918.84;12243679;19;20032;-84
2022/06/21 03:03:24;;;;;;;0.88;0.80;;;16.50;51.80;;;14.39;56.38;100921.47;12244916;19;20536;-84
2022/06/21 03:07:53;;;;;;;1.27;0.77;;;16.50;52.00;;;14.33;56.45;100914.84;12244227;19;20018;-85
2022/06/21 03:12:03;;;;;;;0.95;0.90;;;16.50;51.90;;;14.46;56.42;100933.25;12246894;19;20007;-85
2022/06/21 03:16:12;;;;;;;0.93;0.80;;;16.60;52.00;;;14.06;56.33;100862.41;12240189;19;20027;-85
2022/06/21 03:20:19;;;;;;;1.65;1.10;;;16.80;52.50;;;14.49;56.46;100943.56;12245891;19;20021;-86
2022/06/21 03:24:24;;;;;;;1.50;1.00;;;16.50;51.90;;;14.16;56.43;100889.72;12242717;19;20022;-85
2022/06/21 03:28:36;;;;;;;;;;;16.90;52.20;;;14.53;56.02;100949.50;12246523;19;20074;-86
2022/06/21 03:32:38;;;;;;;1.33;0.80;;;16.50;51.70;;;14.42;56.27;100947.56;12241395;19;20002;-85
2022/06/21 03:36:41;;;;;;;2.38;1.15;;;16.50;51.80;;;14.35;56.28;100939.25;12239851;19;20031;-86
2022/06/21 03:45:26;;;;;;;3.25;1.02;;;16.50;52.00;;;14.37;56.78;100947.03;12243739;19;20021;-85
2022/06/21 03:49:40;;;;;;;1.77;1.20;;;16.40;52.20;;;14.38;56.79;100956.59;12243280;19;20035;-85
2022/06/21 03:53:57;;;;;;;2.97;1.00;;;16.40;52.30;;;13.96;56.69;100898.13;12242264;19;20014;-85
2022/06/21 03:58:32;;;;;;;1.48;0.95;;;16.40;52.10;;;14.35;57.07;100962.06;12230000;19;20046;-85
2022/06/21 04:02:49;;;;;;;2.63;1.30;;;16.40;52.40;;;14.24;56.88;100962.78;12239102;19;20011;-85
2022/06/21 04:06:55;;;;;;;3.08;1.25;;;16.40;52.50;;;14.24;56.86;100959.31;12238967;19;20018;-85
2022/06/21 04:11:13;;;;;;;1.25;0.98;;;16.60;52.50;;;14.28;56.95;100972.13;12234123;19;20014;-84
2022/06/21 04:15:25;;;;;;;2.78;1.58;;;16.40;52.60;;;13.65;57.04;100860.75;12238066;19;20433;-84
2022/06/21 04:20:04;;;;;;;1.30;1.10;;;16.40;52.60;;;14.33;56.96;100964.75;12236236;19;20047;-83
2022/06/21 04:24:16;;;;;;;0.90;0.90;;;16.40;52.70;;;14.33;57.14;100967.41;12242205;19;20017;-84
2022/06/21 04:28:41;;;;;;;2.38;1.17;;;16.50;52.60;;;14.37;56.99;100963.63;12239640;19;20032;-85
2022/06/21 04:32:56;;;;;;;2.83;1.48;;;16.40;52.80;;;14.55;57.10;100984.38;12239281;19;20480;-83
2022/06/21 04:37:35;;;;;;;2.35;1.00;;;16.50;53.00;;;14.54;57.08;100975.66;12232485;19;20469;-85
2022/06/21 04:41:36;;;;;;;1.45;1.00;;;16.50;53.00;;;14.67;56.89;100995.88;12233967;19;20472;-84
2022/06/21 04:46:30;;;;;;;3.33;0.90;;;16.60;53.00;;;14.78;57.29;101002.06;12234959;19;20031;-83
2022/06/21 04:50:39;;;;;;;1.00;0.75;;;16.70;53.10;;;14.73;57.19;100996.28;12231454;19;20021;-84
2022/06/21 04:54:41;;;;;;;2.17;1.13;;;16.80;53.20;;;14.72;57.01;101002.50;12235292;19;20015;-83
2022/06/21 04:58:46;;;;;;;2.80;1.00;;;17.00;52.90;;;14.89;57.08;101008.38;12229412;19;20352;-84
2022/06/21 05:02:54;;;;;;;1.95;1.08;;;17.30;53.50;;;14.88;57.21;101004.91;12234756;19;20052;-83
2022/06/21 05:07:00;;;;;;;3.03;1.10;;;16.90;53.00;;;14.99;57.27;101009.44;12229086;19;20018;-84
2022/06/21 05:11:02;;;;;;;1.73;1.20;;;17.00;52.80;;;14.76;57.23;100976.81;12234386;19;20021;-83
2022/06/21 05:15:14;;;;;;;3.03;1.20;;;17.00;52.90;;;15.11;57.03;101023.50;12231872;19;20011;-83
2022/06/21 05:19:30;;;;;;;1.63;0.85;;;17.10;53.00;;;15.08;57.43;101023.72;12230943;19;20035;-84
2022/06/21 05:23:32;;;;;;;2.15;1.05;;;17.00;53.10;;;15.14;57.13;101025.94;12235347;19;20053;-85
2022/06/21 05:27:51;;;;;;;2.40;1.25;;;17.10;53.10;;;15.09;57.27;101020.13;12231869;19;20018;-83
2022/06/21 05:31:58;;;;;;;1.98;1.20;;;17.20;53.10;;;15.23;57.31;101033.19;12233730;19;20375;-83
2022/06/21 05:36:05;;;;;;;2.72;1.08;;;17.30;53.20;;;15.36;57.35;101039.25;12230037;19;20382;-83
2022/06/21 05:40:42;;;;;;;2.03;1.30;;;17.40;53.40;;;15.51;57.35;101050.50;12233306;19;20029;-83
2022/06/21 05:45:01;;;;;;;1.33;1.10;;;17.40;53.40;;;15.48;57.52;101027.88;12227562;19;20090;-84
2022/06/21 05:49:08;;;;;;;1.67;1.27;;;17.50;53.30;;;15.66;57.40;101020.47;12231565;19;20378;-85
2022/06/21 05:53:27;;;;;;;1.38;1.10;;;17.80;53.40;;;16.07;57.38;101045.63;12230902;19;20035;-82
2022/06/21 05:57:45;;;;;;;1.65;1.05;;;18.10;53.70;;;16.29;57.45;101029.06;12244034;19;20019;-83
2022/06/21 06:02:05;;;;;;;2.47;1.20;;;17.90;53.60;;;16.59;56.88;101051.44;12242114;19;20025;-83
2022/06/21 06:06:15;;;;;;;2.45;1.70;;;18.20;53.20;;;16.76;56.88;101048.34;12241919;19;20011;-82
2022/06/21 06:10:20;;;;;;;3.28;1.60;;;18.40;52.60;;;16.71;56.77;101024.13;12244175;19;20082;-82
2022/06/21 06:14:22;;;;;;;2.03;1.33;;;18.60;52.50;;;17.05;56.73;101055.88;12242849;19;20040;-81
2022/06/21 06:19:01;;;;;;;4.47;1.50;;;18.80;52.40;;;17.13;56.33;101040.28;12238026;19;20007;-81
2022/06/21 06:23:14;;;;;;;3.10;1.20;;;18.90;52.20;;;17.17;56.36;101025.88;12242257;19;20010;-81
2022/06/21 06:27:50;;;;;;;1.30;1.15;;;19.10;52.30;;;17.66;56.07;101066.91;12245498;19;20018;-81
2022/06/21 06:32:22;;;;;;;3.08;1.30;;;19.30;51.70;;;17.70;56.09;101054.28;12244230;19;20026;-82
2022/06/21 06:37:03;;;;;;;3.88;1.30;;;19.50;51.50;;;17.76;55.78;101029.19;12237114;19;20480;-81
2022/06/21 06:41:34;;;;;;;2.35;1.10;;;19.60;51.30;;;18.03;55.82;101055.22;12242873;19;20014;-81
2022/06/21 06:45:36;;;;;;;2.83;0.95;;;19.80;50.80;;;17.95;55.56;101037.31;12233766;19;20566;-81
2022/06/21 06:49:55;;;;;;;1.75;1.02;;;20.00;50.80;;;18.14;55.63;101055.16;12234883;19;20039;-81
2022/06/21 06:54:00;;;;;;;1.63;1.05;;;20.00;50.40;;;18.35;55.51;101066.63;12236691;19;20107;-81
2022/06/21 06:58:28;;;;;;;1.95;1.20;;;20.10;50.50;;;18.57;55.17;101059.53;12226572;19;20011;-82
2022/06/21 07:02:39;;;;;;;1.10;1.00;;;20.30;50.40;;;18.54;55.20;101055.34;12240517;19;20022;-80
2022/06/21 07:06:48;;;;;;;1.85;1.23;;;20.30;49.90;;;18.62;55.06;101052.06;12235141;19;20472;-81
2022/06/21 07:10:53;;;;;;;4.53;1.10;;;20.50;49.90;;;18.90;54.84;101084.16;12242864;19;20021;-81
2022/06/21 07:14:56;;;;;;;3.03;0.88;;;20.60;49.50;;;19.04;54.61;101070.63;12237074;19;20046;-81
2022/06/21 07:19:01;;;;;;;2.78;1.25;;;20.80;49.80;;;19.22;54.52;101069.00;12234995;19;20017;-80
2022/06/21 07:23:10;;;;;;;1.52;1.10;;;20.90;49.60;;;19.42;54.50;101062.00;12237669;19;20515;-81
2022/06/21 07:27:15;;;;;;;2.08;0.98;;;21.10;49.30;;;19.38;54.12;101039.41;12240484;19;20356;-81
2022/06/21 07:31:28;;;;;;;1.98;0.93;;;21.20;49.10;;;19.68;53.99;101050.94;12239654;19;20048;-81
2022/06/21 07:35:40;;;;;;;4.18;1.00;;;21.40;49.10;;;19.66;53.59;101021.13;12235820;19;20357;-81
2022/06/21 07:39:53;;;;;;;4.78;0.98;;;21.60;48.50;;;19.79;53.56;101005.78;12235245;19;20039;-81
2022/06/21 07:44:25;;;;;;;2.10;0.90;;;21.80;47.90;;;19.80;53.38;100977.47;12239645;19;20092;-80
2022/06/21 07:48:45;;;;;;;4.05;1.17;;;21.90;47.80;;;20.17;53.33;101030.66;12228861;19;20026;-81
2022/06/21 07:53:04;;;;;;;2.58;1.00;;;22.00;47.70;;;20.32;53.36;101026.59;12231391;19;20418;-81
2022/06/21 07:57:20;;;;;;;2.05;1.00;;;22.10;48.00;;;20.52;53.03;101032.72;12228023;19;20027;-81
2022/06/21 08:10:26;;;;;;;6.43;0.90;;;22.60;47.00;;;21.07;52.40;101055.13;12229675;19;20497;-80
2022/06/21 08:14:33;;;;;;;3.15;0.98;;;22.80;46.80;;;21.20;52.13;101051.16;12228386;19;20476;-80
2022/06/21 08:19:25;;;;;;;0.85;0.73;;;22.90;46.00;;;21.41;51.53;101048.31;12225678;19;20011;-80
2022/06/21 08:23:55;;;;;;;1.55;0.75;;;23.10;46.20;;;21.30;51.00;101031.66;12230979;19;20022;-79
2022/06/21 08:28:09;;;;;;;2.08;0.75;;;23.20;45.00;;;21.51;51.01;101053.56;12230203;19;20042;-81
2022/06/21 08:32:42;;;;;;;1.75;0.80;;;23.30;45.00;;;21.67;50.86;101041.44;12229455;19;20053;-80
2022/06/21 08:36:56;;;;;;;3.45;0.90;;;23.40;44.80;;;21.85;50.89;101051.13;12226127;19;20035;-80
2022/06/21 08:46:43;;;;;;;1.08;0.70;;;23.80;44.40;;;22.30;50.18;101060.06;12227666;19;20037;-80
2022/06/21 08:51:30;;;;;;;1.42;0.77;;;23.80;44.60;;;22.45;49.93;101057.69;12227633;19;20054;-80
2022/06/21 08:55:46;;;;;;;1.30;0.90;;;24.00;43.10;;;22.56;49.71;101052.13;12226044;19;20018;-80
2022/06/21 09:00:18;;;;;;;0.88;0.60;;;24.20;43.70;;;22.70;49.47;101046.22;12226803;19;20524;-80
2022/06/21 09:05:10;;;;;;;2.97;0.82;;;24.30;43.50;;;22.75;49.39;101040.44;12227785;19;20392;-81
2022/06/21 09:09:35;;;;;;;3.10;0.80;;;24.50;42.60;;;22.89;49.26;101036.38;12224947;19;20583;-81
2022/06/21 09:13:59;;;;;;;;;;;24.60;43.00;;;23.05;50.15;101038.31;12227682;19;20026;-81
2022/06/21 09:18:27;;;;;;;2.65;0.77;;;24.70;44.60;;;23.11;48.83;101043.84;12221916;19;19915;-81
2022/06/21 09:22:58;;;;;;;1.45;0.70;;;24.80;42.50;;;23.21;48.52;101043.72;12234086;19;20678;-80
2022/06/21 09:27:09;;;;;;;1.75;0.90;;;24.90;42.30;;;23.27;48.18;101042.25;12228748;19;20010;-80
2022/06/21 09:31:41;;;;;;;2.03;0.63;;;25.00;41.60;;;23.43;47.89;101052.97;12237532;19;20007;-81
2022/06/21 09:36:13;;;;;;;1.20;0.60;;;25.10;40.90;;;23.61;47.81;101040.38;12232424;19;20035;-81
2022/06/21 09:40:30;;;;;;;1.52;0.57;;;25.20;41.10;;;23.80;47.57;101047.31;12236346;19;20505;-80
2022/06/21 09:45:13;;;;;;;0.80;0.50;;;25.30;41.50;;;23.74;47.30;101023.97;12233933;19;20353;-80
2022/06/21 09:49:53;;;;;;;3.88;0.73;;;25.50;41.30;;;23.92;46.60;101044.31;12227719;19;20011;-80
2022/06/21 09:54:39;;;;;;;2.75;1.08;;;25.60;41.40;;;24.01;46.76;101051.34;12232171;19;20027;-81
2022/06/21 09:58:52;;;;;;;1.92;0.80;;;25.70;40.80;;;24.09;46.16;101048.69;12229740;19;20039;-81
2022/06/21 10:03:28;;;;;;;0.90;0.60;;;25.80;40.40;;;24.28;45.89;101037.69;12232073;19;20407;-81
2022/06/21 10:07:41;;;;;;;2.28;0.50;;;25.90;40.30;;;24.38;46.02;101036.69;12233934;19;20024;-84
2022/06/21 10:12:23;;;;;;;1.05;0.60;;;26.00;40.20;;;24.48;45.58;101037.38;12232775;19;20047;-79
2022/06/21 10:17:07;;;;;;;1.52;0.70;;;26.10;39.90;;;24.68;45.39;101041.38;12228476;19;20018;-80
2022/06/21 10:21:26;;;;;;;2.55;0.90;;;26.20;40.30;;;24.88;45.38;101032.97;12232118;19;20039;-79
2022/06/21 10:25:49;;;;;;;2.38;0.90;;;26.40;40.10;;;25.03;45.20;101036.59;12231089;19;20007;-79
2022/06/21 10:30:20;;;;;;;3.88;0.80;;;26.50;39.70;;;25.12;44.64;101029.41;12230844;19;20361;-80
2022/06/21 10:34:58;;;;;;;0.90;0.57;;;26.70;39.60;;;25.27;45.07;101032.22;12233658;19;20014;-79
2022/06/21 10:40:06;;;;;;;1.38;1.05;;;26.80;39.30;;;25.36;44.65;101045.38;12229511;19;20011;-79
2022/06/21 10:44:39;;;;;;;1.90;1.08;;;26.90;40.30;;;25.43;44.42;101036.66;12225845;19;20017;-79
2022/06/21 10:48:56;;;;;;;2.25;0.93;;;27.00;39.10;;;25.45;43.93;101040.00;12240436;19;20460;-80
2022/06/21 10:53:29;;;;;;;1.70;0.70;;;27.10;38.30;;;25.48;43.79;101037.78;12235112;19;20803;-79
2022/06/21 10:58:18;;;;;;;0.70;0.70;;;27.10;38.40;;;25.66;43.44;101042.91;12234118;19;20636;-79
2022/06/21 11:02:47;;;;;;;5.55;1.00;;;27.20;38.70;;;25.56;43.13;101016.34;12243094;19;20024;-79
2022/06/21 11:07:11;;;;;;;1.50;0.70;;;27.30;38.10;;;25.78;43.21;101041.47;12237860;19;20499;-79
2022/06/21 11:11:22;;;;;;;1.65;0.60;;;27.40;38.40;;;25.78;42.64;101032.63;12242640;19;20006;-79
2022/06/21 11:16:10;;;;;;;3.40;0.70;;;27.40;37.40;;;25.91;42.63;101032.91;12238049;19;20433;-79
2022/06/21 11:20:40;;;;;;;3.63;0.90;;;27.50;37.60;;;26.04;42.42;101035.81;12240880;19;20018;-79
2022/06/21 11:24:54;;;;;;;0.93;0.60;;;27.60;37.10;;;26.15;42.41;101031.06;12239883;19;20781;-79
2022/06/21 11:29:13;;;;;;;1.98;0.63;;;27.40;37.50;;;26.25;41.72;101034.34;12241793;19;20007;-79
2022/06/21 11:33:41;;;;;;;2.25;0.77;;;27.70;37.00;;;26.23;42.04;101006.91;12240088;19;20088;-79
2022/06/21 11:38:01;;;;;;;1.27;0.55;;;27.80;37.40;;;26.43;42.04;101031.31;12239215;19;20346;-79
2022/06/21 11:42:21;;;;;;;2.45;0.75;;;28.00;37.10;;;26.37;41.48;101011.44;12241638;19;20011;-79
2022/06/21 11:47:09;;;;;;;2.25;0.63;;;28.10;37.10;;;26.49;41.23;101020.72;12237864;19;20021;-79
2022/06/21 11:51:10;;;;;;;2.30;0.80;;;28.10;36.40;;;26.47;41.13;101020.06;12236741;19;20014;-79
2022/06/21 11:55:26;;;;;;;1.05;0.70;;;28.10;36.20;;;26.38;40.83;100990.84;12238697;19;20006;-79
2022/06/21 12:00:05;;;;;;;0.65;0.50;;;28.10;36.30;;;26.58;41.01;101010.78;12230366;19;20019;-78
2022/06/21 12:04:39;;;;;;;0.90;0.65;;;28.10;36.50;;;26.70;40.79;101013.84;12231825;19;20367;-79
2022/06/21 12:09:00;;;;;;;1.20;0.65;;;28.20;36.40;;;26.83;40.46;101019.38;12221686;19;20067;-80
2022/06/21 12:13:05;;;;;;;1.23;0.63;;;28.30;36.20;;;26.89;40.16;101024.00;12232994;19;20122;-78
2022/06/21 12:17:20;;;;;;;1.55;0.60;;;28.40;35.90;;;26.84;39.72;101004.13;12226273;19;20021;-79
2022/06/21 12:21:36;;;;;;;1.95;0.77;;;28.50;35.50;;;26.89;39.61;101005.25;12231223;19;20018;-79
2022/06/21 12:25:38;;;;;;;1.23;0.60;;;28.50;35.70;;;26.85;39.75;100992.41;12225630;19;20021;-79
2022/06/21 12:29:40;;;;;;;1.17;0.63;;;28.50;35.40;;;26.82;39.82;100974.88;12230190;19;20018;-79
2022/06/21 12:33:46;;;;;;;3.22;0.75;;;28.60;35.80;;;27.06;39.31;100999.72;12227245;19;20029;-79
2022/06/21 12:37:52;;;;;;;0.88;0.50;;;28.60;35.40;;;26.98;39.18;100962.25;12224847;19;20074;-80
2022/06/21 12:42:25;;;;;;;0.95;0.68;;;28.80;35.10;;;27.28;38.31;100996.09;12202475;19;20011;-79
2022/06/21 12:47:24;;;;;;;1.10;0.63;;;28.70;35.00;;;27.33;38.57;101000.91;12211120;19;20377;-79
2022/06/21 12:51:56;;;;;;;1.15;0.50;;;28.80;35.10;;;27.47;38.63;101004.59;12204715;19;20503;-78
2022/06/21 12:56:11;;;;;;;1.15;0.52;;;28.90;35.20;;;27.53;38.60;101003.81;12212129;19;20042;-79
2022/06/21 13:00:57;;;;;;;0.95;0.50;;;28.90;34.70;;;27.59;38.20;101000.38;12201095;19;20030;-79
2022/06/21 13:05:52;;;;;;;1.25;0.57;;;29.00;34.80;;;27.65;37.99;100991.53;12218223;19;20121;-79
2022/06/21 13:10:36;;;;;;;1.17;0.57;;;29.10;34.50;;;27.64;37.51;100992.56;12218748;19;20030;-79
2022/06/21 13:15:03;;;;;;;3.20;0.70;;;29.20;34.40;;;27.65;37.54;100982.66;12217301;19;20014;-79
2022/06/21 13:19:21;;;;;;;0.63;0.60;;;29.20;34.20;;;27.70;37.23;100983.75;12213912;19;20014;-79
2022/06/21 13:23:48;;;;;;;1.90;0.47;;;29.20;34.00;;;27.75;37.23;100986.69;12206636;19;20123;-78
2022/06/21 13:28:17;;;;;;;1.17;0.60;;;29.30;34.20;;;27.86;37.11;100982.72;12218933;19;20011;-79
2022/06/21 13:32:26;;;;;;;0.47;0.47;;;29.30;34.30;;;27.85;36.67;100969.50;12220891;19;20664;-79
2022/06/21 13:36:49;;;;;;;2.30;0.70;;;29.40;33.60;;;27.84;36.91;100952.56;12217639;19;20014;-79
2022/06/21 13:45:53;;;;;;;1.02;0.60;;;29.50;33.90;;;28.01;36.24;100978.09;12214976;19;20049;-80
2022/06/21 13:50:20;;;;;;;0.77;0.50;;;29.50;33.20;;;27.92;35.93;100954.25;12221287;19;20025;-78
2022/06/21 13:54:44;;;;;;;2.15;0.65;;;29.50;33.40;;;27.91;36.19;100953.44;12214704;19;20115;-78
2022/06/21 13:59:13;;;;;;;0.60;0.55;;;29.50;33.40;;;28.05;36.20;100966.97;12216149;19;20530;-78
2022/06/21 14:03:37;;;;;;;0.73;0.70;;;29.50;33.30;;;27.89;36.07;100930.50;12217071;19;20569;-78
2022/06/21 14:11:57;;;;;;;1.75;0.60;;;29.60;33.40;;;28.19;36.14;100956.16;12194334;19;20019;-79
2022/06/21 14:16:22;;;;;;;1.10;0.50;;;29.70;33.40;;;28.23;35.75;100956.59;12220531;19;20010;-78
2022/06/21 14:20:29;;;;;;;1.92;0.60;;;29.70;33.00;;;28.20;35.47;100947.06;12226227;19;20015;-79
2022/06/21 14:24:47;;;;;;;1.00;0.70;;;29.70;32.80;;;27.87;35.46;100900.31;12230803;19;20014;-79
2022/06/21 14:29:01;;;;;;;1.55;0.50;;;29.70;32.60;;;28.12;35.52;100943.72;12226051;19;20021;-78
2022/06/21 14:33:26;;;;;;;0.55;0.43;;;29.70;32.60;;;27.97;35.25;100938.41;12227323;19;20022;-79
2022/06/21 14:38:01;;;;;;;;;;;29.60;32.50;;;27.91;36.27;100923.09;12224730;19;20098;-78
2022/06/21 14:42:34;;;;;;;0.60;0.55;;;29.60;34.00;;;27.88;35.28;100931.53;12228442;19;19923;-79
2022/06/21 14:46:53;;;;;;;0.88;0.45;;;29.50;32.30;;;27.93;34.82;100946.03;12225646;19;20484;-79
2022/06/21 14:51:34;;;;;;;2.05;0.52;;;29.50;32.60;;;27.84;35.01;100922.19;12223995;19;20018;-79
2022/06/21 14:56:24;;;;;;;1.45;0.50;;;29.50;32.50;;;27.79;35.04;100933.50;12226488;19;20014;-78
2022/06/21 15:01:07;;;;;;;0.45;0.35;;;29.40;32.20;;;27.72;34.44;100938.78;12224451;19;20017;-78
2022/06/21 15:05:44;;;;;;;1.35;0.40;;;29.30;31.90;;;27.54;34.90;100919.59;12228544;19;20014;-79
2022/06/21 15:09:56;;;;;;;0.93;0.55;;;29.20;32.30;;;27.51;34.55;100914.63;12218585;19;20023;-78
2022/06/21 15:14:03;;;;;;;0.85;0.50;;;29.20;32.30;;;27.57;34.63;100911.19;12214220;19;20014;-78
2022/06/21 15:18:28;;;;;;;1.60;0.55;;;29.10;32.10;;;27.74;34.18;100917.13;12213373;19;20480;-78
2022/06/21 15:23:02;;;;;;;1.27;0.63;;;29.20;32.30;;;27.77;34.29;100889.91;12220432;19;20047;-78
2022/06/21 15:27:14;;;;;;;1.33;0.55;;;29.20;32.70;;;27.75;34.23;100887.41;12218347;19;20019;-77
2022/06/21 15:31:24;;;;;;;0.90;0.40;;;29.30;32.20;;;27.85;33.43;100894.34;12219164;19;20246;-77
2022/06/21 15:36:06;;;;;;;1.13;0.60;;;29.30;31.90;;;27.78;33.92;100892.38;12221666;19;20049;-77
2022/06/21 15:40:20;;;;;;;0.50;0.50;;;29.30;31.70;;;27.74;34.07;100882.25;12219087;19;20635;-77
2022/06/21 15:44:42;;;;;;;0.50;0.50;;;29.20;31.80;;;27.76;33.51;100886.41;12222992;19;20021;-79
2022/06/21 15:53:49;;;;;;;0.73;0.45;;;29.20;31.70;;;27.80;33.73;100890.38;12221362;19;20018;-78
2022/06/21 15:58:03;;;;;;;3.22;0.50;;;29.20;31.80;;;27.75;33.55;100878.53;12219982;19;20015;-78
2022/06/21 16:02:35;;;;;;;0.70;0.70;;;29.30;31.80;;;27.86;33.58;100886.06;12215854;19;20051;-77
2022/06/21 16:07:04;;;;;;;1.23;0.60;;;29.20;31.80;;;27.90;33.57;100887.34;12226505;19;20124;-78
2022/06/21 16:11:19;;;;;;;1.08;0.60;;;29.30;31.80;;;27.87;33.30;100890.44;12220530;19;20027;-78
2022/06/21 16:15:26;;;;;;;1.60;0.73;;;29.30;31.60;;;27.94;33.45;100887.78;12224173;19;20014;-78
2022/06/21 16:19:28;;;;;;;0.40;0.40;;;29.30;31.50;;;27.95;33.38;100887.59;12222202;19;20055;-78
2022/06/21 16:23:41;;;;;;;0.90;0.43;;;29.40;31.70;;;27.85;32.94;100870.19;12225255;19;20019;-78
2022/06/21 16:27:48;;;;;;;1.35;0.55;;;29.40;31.60;;;27.85;33.43;100875.56;12221879;19;20023;-79
2022/06/21 16:37:01;;;;;;;1.23;0.52;;;29.40;31.30;;;27.76;33.11;100888.22;12222354;19;20114;-78
2022/06/21 16:46:05;;;;;;;2.10;0.60;;;29.30;31.30;;;27.68;32.60;100883.00;12222428;19;20014;-78
2022/06/21 16:50:41;;;;;;;0.30;0.30;;;29.20;31.10;;;27.60;32.59;100873.25;12225206;19;20105;-78
2022/06/21 16:54:42;;;;;;;1.48;0.52;;;29.00;31.30;;;27.31;32.54;100839.34;12222415;19;20018;-77
2022/06/21 16:59:07;;;;;;;1.65;0.55;;;29.00;30.70;;;27.36;32.30;100869.09;12207896;19;20018;-78
2022/06/21 17:03:14;;;;;;;2.80;0.73;;;28.90;31.00;;;27.21;32.71;100863.78;12220859;19;20006;-77
2022/06/21 17:07:25;;;;;;;0.45;0.40;;;28.80;31.30;;;27.22;32.71;100860.09;12223350;19;20015;-78
2022/06/21 17:11:27;;;;;;;1.13;0.65;;;28.70;30.90;;;27.18;32.46;100866.84;12222645;19;20034;-77
2022/06/21 17:15:38;;;;;;;0.63;0.47;;;28.70;31.20;;;27.15;32.10;100868.03;12219180;19;20566;-77
2022/06/21 17:20:30;;;;;;;0.40;0.40;;;28.60;30.90;;;27.06;32.66;100849.59;12222905;19;20025;-78
2022/06/21 17:24:52;;;;;;;1.25;0.60;;;28.60;31.60;;;27.09;32.35;100863.44;12220797;19;20833;-77
2022/06/21 17:28:58;;;;;;;0.98;0.70;;;28.60;30.90;;;26.99;32.28;100852.19;12222072;19;20011;-77
2022/06/21 17:33:37;;;;;;;2.72;0.80;;;28.50;31.30;;;27.02;32.82;100867.88;12221179;19;20046;-78
2022/06/21 17:37:57;;;;;;;2.10;0.63;;;28.50;31.50;;;26.92;32.61;100852.13;12222711;19;20564;-79
2022/06/21 17:42:40;;;;;;;1.02;0.50;;;28.40;31.30;;;26.91;32.56;100853.13;12220023;19;20032;-78
2022/06/21 17:47:08;;;;;;;0.50;0.50;;;28.40;32.00;;;26.83;32.69;100841.69;12220235;19;20085;-79
2022/06/21 17:51:13;;;;;;;2.60;0.55;;;28.40;31.90;;;26.89;32.77;100860.50;12205191;19;20531;-79
2022/06/21 17:55:44;;;;;;;0.68;0.52;;;28.40;31.80;;;26.81;32.94;100841.88;12232635;19;20046;-78
2022/06/21 17:59:46;;;;;;;0.80;0.80;;;28.40;31.50;;;26.83;33.08;100852.41;12226109;19;20027;-78
2022/06/21 18:04:21;;;;;;;1.17;0.98;;;28.40;32.00;;;26.88;33.02;100858.03;12232992;19;20134;-78
2022/06/21 18:08:32;;;;;;;2.27;1.33;;;28.30;32.50;;;26.85;33.40;100861.09;12232835;19;20198;-78
2022/06/21 18:13:12;;;;;;;1.75;1.15;;;28.30;32.50;;;26.80;33.68;100861.66;12236423;19;20018;-79
2022/06/21 18:17:32;;;;;;;2.42;1.10;;;28.30;33.00;;;26.70;34.25;100863.78;12233022;19;20035;-79
2022/06/21 18:22:30;;;;;;;2.00;0.70;;;28.20;33.70;;;26.62;34.51;100866.56;12223345;19;20019;-79
2022/06/21 18:26:46;;;;;;;1.27;0.80;;;28.10;33.90;;;26.35;34.88;100847.44;12196891;19;20115;-79
2022/06/21 18:31:12;;;;;;;0.95;0.75;;;28.10;34.00;;;26.38;34.72;100860.47;12228723;19;20454;-79
2022/06/21 18:35:15;;;;;;;;;;;28.00;33.50;;;26.28;34.59;100857.25;12230726;19;20494;-78